sensor_id;sensor_type;location;lat;lon;timestamp;temperature;humidity
77247;SHT35;66279;42.820;23.374;2023-02-01T00:01:11;-1.33;86.81
77247;SHT35;66279;42.820;23.374;2023-02-01T00:03:37;-1.36;86.43
77247;SHT35;66279;42.820;23.374;2023-02-01T00:06:03;-1.37;86.92
77247;SHT35;66279;42.820;23.374;2023-02-01T00:08:28;-1.36;87.41
77247;SHT35;66279;42.820;23.374;2023-02-01T00:11:01;-1.33;87.27
77247;SHT35;66279;42.820;23.374;2023-02-01T00:13:31;-1.25;86.95
77247;SHT35;66279;42.820;23.374;2023-02-01T00:16:12;-1.20;87.10
77247;SHT35;66279;42.820;23.374;2023-02-01T00:18:38;-1.16;86.66
77247;SHT35;66279;42.820;23.374;2023-02-01T00:21:04;-1.08;86.84
77247;SHT35;66279;42.820;23.374;2023-02-01T00:23:34;-1.06;86.66
77247;SHT35;66279;42.820;23.374;2023-02-01T00:26:01;-0.92;86.94
77247;SHT35;66279;42.820;23.374;2023-02-01T00:28:27;-0.87;86.50
77247;SHT35;66279;42.820;23.374;2023-02-01T00:31:01;-0.78;86.05
77247;SHT35;66279;42.820;23.374;2023-02-01T00:33:28;-0.84;86.00
77247;SHT35;66279;42.820;23.374;2023-02-01T00:35:57;-0.82;85.67
77247;SHT35;66279;42.820;23.374;2023-02-01T00:38:24;-0.79;85.87
77247;SHT35;66279;42.820;23.374;2023-02-01T00:40:50;-0.81;85.82
77247;SHT35;66279;42.820;23.374;2023-02-01T00:43:16;-0.77;85.77
77247;SHT35;66279;42.820;23.374;2023-02-01T00:45:42;-0.81;85.81
77247;SHT35;66279;42.820;23.374;2023-02-01T00:48:07;-0.82;86.06
77247;SHT35;66279;42.820;23.374;2023-02-01T00:50:33;-0.78;85.82
77247;SHT35;66279;42.820;23.374;2023-02-01T00:52:58;-0.91;86.16
77247;SHT35;66279;42.820;23.374;2023-02-01T00:55:25;-0.93;86.23
77247;SHT35;66279;42.820;23.374;2023-02-01T00:57:50;-0.95;86.25
77247;SHT35;66279;42.820;23.374;2023-02-01T01:00:16;-0.96;86.31
77247;SHT35;66279;42.820;23.374;2023-02-01T01:02:42;-0.96;86.49
77247;SHT35;66279;42.820;23.374;2023-02-01T01:05:08;-0.95;86.41
77247;SHT35;66279;42.820;23.374;2023-02-01T01:07:33;-0.93;86.51
77247;SHT35;66279;42.820;23.374;2023-02-01T01:09:59;-0.96;86.54
77247;SHT35;66279;42.820;23.374;2023-02-01T01:12:25;-1.05;86.69
77247;SHT35;66279;42.820;23.374;2023-02-01T01:14:51;-1.12;86.95
77247;SHT35;66279;42.820;23.374;2023-02-01T01:17:16;-1.06;86.45
77247;SHT35;66279;42.820;23.374;2023-02-01T01:19:42;-1.13;86.57
77247;SHT35;66279;42.820;23.374;2023-02-01T01:22:07;-1.19;86.52
77247;SHT35;66279;42.820;23.374;2023-02-01T01:24:33;-1.26;86.73
77247;SHT35;66279;42.820;23.374;2023-02-01T01:26:58;-1.32;86.76
77247;SHT35;66279;42.820;23.374;2023-02-01T01:29:24;-1.35;87.12
77247;SHT35;66279;42.820;23.374;2023-02-01T01:31:50;-1.44;87.32
77247;SHT35;66279;42.820;23.374;2023-02-01T01:34:15;-1.42;86.94
77247;SHT35;66279;42.820;23.374;2023-02-01T01:36:41;-1.42;86.57
77247;SHT35;66279;42.820;23.374;2023-02-01T01:39:06;-1.51;86.84
77247;SHT35;66279;42.820;23.374;2023-02-01T01:41:32;-1.61;86.90
77247;SHT35;66279;42.820;23.374;2023-02-01T01:44:04;-1.64;87.25
77247;SHT35;66279;42.820;23.374;2023-02-01T01:46:35;-1.66;87.19
77247;SHT35;66279;42.820;23.374;2023-02-01T01:49:19;-1.67;87.46
77247;SHT35;66279;42.820;23.374;2023-02-01T01:51:48;-1.64;86.72
77247;SHT35;66279;42.820;23.374;2023-02-01T01:56:57;-1.46;85.60
77247;SHT35;66279;42.820;23.374;2023-02-01T01:59:24;-1.42;85.21
77247;SHT35;66279;42.820;23.374;2023-02-01T02:01:51;-1.66;84.91
77247;SHT35;66279;42.820;23.374;2023-02-01T02:04:17;-1.72;85.71
77247;SHT35;66279;42.820;23.374;2023-02-01T02:09:15;-1.53;85.16
77247;SHT35;66279;42.820;23.374;2023-02-01T02:11:41;-1.72;84.76
77247;SHT35;66279;42.820;23.374;2023-02-01T02:14:09;-1.95;85.37
77247;SHT35;66279;42.820;23.374;2023-02-01T02:16:52;-2.16;86.84
77247;SHT35;66279;42.820;23.374;2023-02-01T02:32:55;-2.09;87.41
77247;SHT35;66279;42.820;23.374;2023-02-01T02:46:05;-2.15;87.57
77247;SHT35;66279;42.820;23.374;2023-02-01T02:51:49;-2.19;88.15
77247;SHT35;66279;42.820;23.374;2023-02-01T02:54:38;-2.12;88.08
77247;SHT35;66279;42.820;23.374;2023-02-01T02:57:18;-2.08;88.35
77247;SHT35;66279;42.820;23.374;2023-02-01T03:00:06;-1.99;88.30
77247;SHT35;66279;42.820;23.374;2023-02-01T03:02:53;-1.91;87.81
77247;SHT35;66279;42.820;23.374;2023-02-01T03:05:41;-1.81;87.53
77247;SHT35;66279;42.820;23.374;2023-02-01T03:08:12;-1.74;87.49
77247;SHT35;66279;42.820;23.374;2023-02-01T03:13:45;-1.26;84.97
77247;SHT35;66279;42.820;23.374;2023-02-01T03:16:18;-1.08;84.43
77247;SHT35;66279;42.820;23.374;2023-02-01T03:24:15;-0.87;83.96
77247;SHT35;66279;42.820;23.374;2023-02-01T03:26:48;-0.79;83.79
77247;SHT35;66279;42.820;23.374;2023-02-01T03:29:30;-0.77;83.95
77247;SHT35;66279;42.820;23.374;2023-02-01T03:31:59;-0.74;83.96
77247;SHT35;66279;42.820;23.374;2023-02-01T03:34:24;-0.71;84.51
77247;SHT35;66279;42.820;23.374;2023-02-01T03:36:58;-0.71;84.89
77247;SHT35;66279;42.820;23.374;2023-02-01T03:39:32;-0.67;84.82
77247;SHT35;66279;42.820;23.374;2023-02-01T03:42:10;-0.68;85.19
77247;SHT35;66279;42.820;23.374;2023-02-01T03:44:43;-0.65;85.11
77247;SHT35;66279;42.820;23.374;2023-02-01T03:47:14;-0.65;85.30
77247;SHT35;66279;42.820;23.374;2023-02-01T03:49:44;-0.65;85.07
77247;SHT35;66279;42.820;23.374;2023-02-01T03:52:20;-0.67;85.15
77247;SHT35;66279;42.820;23.374;2023-02-01T03:54:48;-0.68;85.33
77247;SHT35;66279;42.820;23.374;2023-02-01T03:57:18;-0.65;85.16
77247;SHT35;66279;42.820;23.374;2023-02-01T03:59:46;-0.69;85.13
77247;SHT35;66279;42.820;23.374;2023-02-01T04:02:11;-0.67;85.29
77247;SHT35;66279;42.820;23.374;2023-02-01T04:04:37;-0.71;85.44
77247;SHT35;66279;42.820;23.374;2023-02-01T04:07:03;-0.67;85.49
77247;SHT35;66279;42.820;23.374;2023-02-01T04:09:29;-0.68;84.80
77247;SHT35;66279;42.820;23.374;2023-02-01T04:11:54;-0.65;84.50
77247;SHT35;66279;42.820;23.374;2023-02-01T04:14:20;-0.67;84.28
77247;SHT35;66279;42.820;23.374;2023-02-01T04:16:46;-0.67;83.90
77247;SHT35;66279;42.820;23.374;2023-02-01T04:19:11;-0.64;84.06
77247;SHT35;66279;42.820;23.374;2023-02-01T04:21:37;-0.65;84.05
77247;SHT35;66279;42.820;23.374;2023-02-01T04:24:03;-0.62;83.78
77247;SHT35;66279;42.820;23.374;2023-02-01T04:26:29;-0.62;83.74
77247;SHT35;66279;42.820;23.374;2023-02-01T04:28:54;-0.58;83.39
77247;SHT35;66279;42.820;23.374;2023-02-01T04:31:20;-0.58;83.65
77247;SHT35;66279;42.820;23.374;2023-02-01T04:33:51;-0.58;83.86
77247;SHT35;66279;42.820;23.374;2023-02-01T04:36:18;-0.57;84.10
77247;SHT35;66279;42.820;23.374;2023-02-01T04:38:48;-0.61;83.68
77247;SHT35;66279;42.820;23.374;2023-02-01T04:41:13;-0.64;83.56
77247;SHT35;66279;42.820;23.374;2023-02-01T04:43:39;-0.58;83.81
77247;SHT35;66279;42.820;23.374;2023-02-01T04:46:04;-0.61;83.97
77247;SHT35;66279;42.820;23.374;2023-02-01T04:48:30;-0.64;84.09
77247;SHT35;66279;42.820;23.374;2023-02-01T04:50:56;-0.56;83.97
77247;SHT35;66279;42.820;23.374;2023-02-01T04:53:21;-0.60;83.82
77247;SHT35;66279;42.820;23.374;2023-02-01T04:55:48;-0.53;83.60
77247;SHT35;66279;42.820;23.374;2023-02-01T04:58:14;-0.54;83.17
77247;SHT35;66279;42.820;23.374;2023-02-01T05:00:39;-0.54;83.55
77247;SHT35;66279;42.820;23.374;2023-02-01T05:03:05;-0.58;83.58
77247;SHT35;66279;42.820;23.374;2023-02-01T05:05:31;-0.54;83.36
77247;SHT35;66279;42.820;23.374;2023-02-01T05:07:57;-0.51;83.42
77247;SHT35;66279;42.820;23.374;2023-02-01T05:10:22;-0.48;83.10
77247;SHT35;66279;42.820;23.374;2023-02-01T05:12:48;-0.50;83.35
77247;SHT35;66279;42.820;23.374;2023-02-01T05:15:33;-0.50;83.57
77247;SHT35;66279;42.820;23.374;2023-02-01T05:17:58;-0.48;83.41
77247;SHT35;66279;42.820;23.374;2023-02-01T05:20:24;-0.50;83.66
77247;SHT35;66279;42.820;23.374;2023-02-01T05:22:50;-0.44;83.53
77247;SHT35;66279;42.820;23.374;2023-02-01T05:25:16;-0.56;83.57
77247;SHT35;66279;42.820;23.374;2023-02-01T05:27:41;-0.60;83.89
77247;SHT35;66279;42.820;23.374;2023-02-01T05:30:08;-0.57;84.18
77247;SHT35;66279;42.820;23.374;2023-02-01T05:32:33;-0.58;84.80
77247;SHT35;66279;42.820;23.374;2023-02-01T05:34:59;-0.48;84.59
77247;SHT35;66279;42.820;23.374;2023-02-01T05:37:25;-0.48;84.39
77247;SHT35;66279;42.820;23.374;2023-02-01T05:39:51;-0.51;84.63
77247;SHT35;66279;42.820;23.374;2023-02-01T05:42:16;-0.48;84.88
77247;SHT35;66279;42.820;23.374;2023-02-01T05:44:42;-0.44;84.81
77247;SHT35;66279;42.820;23.374;2023-02-01T05:47:07;-0.44;85.20
77247;SHT35;66279;42.820;23.374;2023-02-01T05:49:33;-0.44;84.77
77247;SHT35;66279;42.820;23.374;2023-02-01T05:51:59;-0.44;84.89
77247;SHT35;66279;42.820;23.374;2023-02-01T05:54:24;-0.50;85.06
77247;SHT35;66279;42.820;23.374;2023-02-01T05:56:50;-0.48;85.21
77247;SHT35;66279;42.820;23.374;2023-02-01T05:59:15;-0.50;85.23
77247;SHT35;66279;42.820;23.374;2023-02-01T06:01:41;-0.45;85.29
77247;SHT35;66279;42.820;23.374;2023-02-01T06:04:06;-0.45;85.59
77247;SHT35;66279;42.820;23.374;2023-02-01T06:06:32;-0.50;85.60
77247;SHT35;66279;42.820;23.374;2023-02-01T06:08:58;-0.48;85.78
77247;SHT35;66279;42.820;23.374;2023-02-01T06:11:24;-0.45;85.81
77247;SHT35;66279;42.820;23.374;2023-02-01T06:13:49;-0.45;85.76
77247;SHT35;66279;42.820;23.374;2023-02-01T06:16:15;-0.45;86.14
77247;SHT35;66279;42.820;23.374;2023-02-01T06:18:41;-0.40;85.96
77247;SHT35;66279;42.820;23.374;2023-02-01T06:21:07;-0.40;85.95
77247;SHT35;66279;42.820;23.374;2023-02-01T06:23:34;-0.40;85.93
77247;SHT35;66279;42.820;23.374;2023-02-01T06:26:05;-0.37;85.58
77247;SHT35;66279;42.820;23.374;2023-02-01T06:28:32;-0.36;85.94
77247;SHT35;66279;42.820;23.374;2023-02-01T06:31:03;-0.30;85.29
77247;SHT35;66279;42.820;23.374;2023-02-01T06:33:29;-0.21;84.51
77247;SHT35;66279;42.820;23.374;2023-02-01T06:35:58;-0.11;84.67
77247;SHT35;66279;42.820;23.374;2023-02-01T06:38:24;-0.10;84.71
77247;SHT35;66279;42.820;23.374;2023-02-01T06:40:56;-0.07;83.99
77247;SHT35;66279;42.820;23.374;2023-02-01T06:43:23;-0.09;84.03
77247;SHT35;66279;42.820;23.374;2023-02-01T06:45:49;-0.07;84.26
77247;SHT35;66279;42.820;23.374;2023-02-01T06:48:15;-0.07;84.22
77247;SHT35;66279;42.820;23.374;2023-02-01T06:50:41;-0.06;84.33
77247;SHT35;66279;42.820;23.374;2023-02-01T06:53:06;-0.02;84.36
77247;SHT35;66279;42.820;23.374;2023-02-01T06:55:32;0.07;84.45
77247;SHT35;66279;42.820;23.374;2023-02-01T06:57:57;0.15;83.72
77247;SHT35;66279;42.820;23.374;2023-02-01T07:00:23;0.12;83.68
77247;SHT35;66279;42.820;23.374;2023-02-01T07:02:49;0.14;83.66
77247;SHT35;66279;42.820;23.374;2023-02-01T07:05:15;0.15;83.83
77247;SHT35;66279;42.820;23.374;2023-02-01T07:07:41;0.26;82.84
77247;SHT35;66279;42.820;23.374;2023-02-01T07:10:07;0.29;83.01
77247;SHT35;66279;42.820;23.374;2023-02-01T07:12:32;0.35;82.16
77247;SHT35;66279;42.820;23.374;2023-02-01T07:14:58;0.44;81.84
77247;SHT35;66279;42.820;23.374;2023-02-01T07:17:23;0.51;81.66
77247;SHT35;66279;42.820;23.374;2023-02-01T07:19:49;0.53;81.58
77247;SHT35;66279;42.820;23.374;2023-02-01T07:22:17;0.58;81.24
77247;SHT35;66279;42.820;23.374;2023-02-01T07:24:43;0.58;81.80
77247;SHT35;66279;42.820;23.374;2023-02-01T07:27:09;0.59;81.38
77247;SHT35;66279;42.820;23.374;2023-02-01T07:29:34;0.65;81.40
77247;SHT35;66279;42.820;23.374;2023-02-01T07:32:00;0.72;80.56
77247;SHT35;66279;42.820;23.374;2023-02-01T07:34:26;0.75;80.80
77247;SHT35;66279;42.820;23.374;2023-02-01T07:36:52;0.77;80.21
77247;SHT35;66279;42.820;23.374;2023-02-01T07:39:17;0.79;80.10
77247;SHT35;66279;42.820;23.374;2023-02-01T07:41:43;0.83;79.99
77247;SHT35;66279;42.820;23.374;2023-02-01T07:44:09;0.83;79.94
77247;SHT35;66279;42.820;23.374;2023-02-01T07:46:34;0.86;79.61
77247;SHT35;66279;42.820;23.374;2023-02-01T07:49:01;0.90;79.61
77247;SHT35;66279;42.820;23.374;2023-02-01T07:51:27;0.94;79.48
77247;SHT35;66279;42.820;23.374;2023-02-01T07:53:52;0.97;79.25
77247;SHT35;66279;42.820;23.374;2023-02-01T07:56:19;1.00;79.59
77247;SHT35;66279;42.820;23.374;2023-02-01T07:58:49;1.03;79.07
77247;SHT35;66279;42.820;23.374;2023-02-01T08:01:21;1.05;78.62
77247;SHT35;66279;42.820;23.374;2023-02-01T08:03:54;1.11;78.55
77247;SHT35;66279;42.820;23.374;2023-02-01T08:06:20;1.17;78.05
77247;SHT35;66279;42.820;23.374;2023-02-01T08:08:47;1.21;78.07
77247;SHT35;66279;42.820;23.374;2023-02-01T08:11:13;1.26;77.70
77247;SHT35;66279;42.820;23.374;2023-02-01T08:13:39;1.27;77.36
77247;SHT35;66279;42.820;23.374;2023-02-01T08:16:07;1.30;78.05
77247;SHT35;66279;42.820;23.374;2023-02-01T08:18:34;1.32;77.74
77247;SHT35;66279;42.820;23.374;2023-02-01T08:21:04;1.35;78.05
77247;SHT35;66279;42.820;23.374;2023-02-01T08:23:30;1.38;77.34
77247;SHT35;66279;42.820;23.374;2023-02-01T08:26:11;1.38;77.14
77247;SHT35;66279;42.820;23.374;2023-02-01T08:28:38;1.41;76.32
77247;SHT35;66279;42.820;23.374;2023-02-01T08:31:08;1.41;76.82
77247;SHT35;66279;42.820;23.374;2023-02-01T08:33:34;1.45;76.61
77247;SHT35;66279;42.820;23.374;2023-02-01T08:36:03;1.49;76.71
77247;SHT35;66279;42.820;23.374;2023-02-01T08:38:29;1.52;76.81
77247;SHT35;66279;42.820;23.374;2023-02-01T08:40:55;1.58;76.56
77247;SHT35;66279;42.820;23.374;2023-02-01T08:43:20;1.62;76.69
77247;SHT35;66279;42.820;23.374;2023-02-01T08:45:46;1.69;76.63
77247;SHT35;66279;42.820;23.374;2023-02-01T08:48:11;1.73;76.29
77247;SHT35;66279;42.820;23.374;2023-02-01T08:50:37;1.80;76.22
77247;SHT35;66279;42.820;23.374;2023-02-01T08:53:02;1.87;75.82
77247;SHT35;66279;42.820;23.374;2023-02-01T08:55:28;1.96;75.24
77247;SHT35;66279;42.820;23.374;2023-02-01T08:57:54;2.03;75.59
77247;SHT35;66279;42.820;23.374;2023-02-01T09:00:19;2.02;75.55
77247;SHT35;66279;42.820;23.374;2023-02-01T09:02:45;2.11;75.41
77247;SHT35;66279;42.820;23.374;2023-02-01T09:05:11;2.14;75.19
77247;SHT35;66279;42.820;23.374;2023-02-01T09:07:37;2.17;74.66
77247;SHT35;66279;42.820;23.374;2023-02-01T09:10:03;2.17;73.18
77247;SHT35;66279;42.820;23.374;2023-02-01T09:12:31;2.23;73.36
77247;SHT35;66279;42.820;23.374;2023-02-01T09:14:58;2.30;73.11
77247;SHT35;66279;42.820;23.374;2023-02-01T09:17:28;2.44;73.10
77247;SHT35;66279;42.820;23.374;2023-02-01T09:19:54;2.48;73.27
77247;SHT35;66279;42.820;23.374;2023-02-01T09:22:20;2.51;71.96
77247;SHT35;66279;42.820;23.374;2023-02-01T09:24:46;2.54;71.08
77247;SHT35;66279;42.820;23.374;2023-02-01T09:27:11;2.57;71.87
77247;SHT35;66279;42.820;23.374;2023-02-01T09:29:37;2.60;71.57
77247;SHT35;66279;42.820;23.374;2023-02-01T09:32:03;2.61;71.99
77247;SHT35;66279;42.820;23.374;2023-02-01T09:34:28;2.66;71.35
77247;SHT35;66279;42.820;23.374;2023-02-01T09:36:54;2.72;71.16
77247;SHT35;66279;42.820;23.374;2023-02-01T09:39:20;2.79;70.94
77247;SHT35;66279;42.820;23.374;2023-02-01T09:41:57;2.87;71.45
77247;SHT35;66279;42.820;23.374;2023-02-01T09:44:35;3.00;70.66
77247;SHT35;66279;42.820;23.374;2023-02-01T09:47:03;3.13;70.33
77247;SHT35;66279;42.820;23.374;2023-02-01T09:49:33;3.24;68.42
77247;SHT35;66279;42.820;23.374;2023-02-01T09:52:06;3.33;68.99
77247;SHT35;66279;42.820;23.374;2023-02-01T09:54:42;3.49;67.80
77247;SHT35;66279;42.820;23.374;2023-02-01T09:57:16;3.68;68.02
77247;SHT35;66279;42.820;23.374;2023-02-01T09:59:46;3.78;67.47
77247;SHT35;66279;42.820;23.374;2023-02-01T10:02:18;3.97;66.52
77247;SHT35;66279;42.820;23.374;2023-02-01T10:04:47;4.06;65.48
77247;SHT35;66279;42.820;23.374;2023-02-01T10:10:10;4.10;64.74
77247;SHT35;66279;42.820;23.374;2023-02-01T10:13:08;4.13;65.16
77247;SHT35;66279;42.820;23.374;2023-02-01T10:21:41;4.54;62.63
77247;SHT35;66279;42.820;23.374;2023-02-01T10:24:23;4.61;62.67
77247;SHT35;66279;42.820;23.374;2023-02-01T10:27:06;5.01;62.88
77247;SHT35;66279;42.820;23.374;2023-02-01T10:29:39;5.24;62.13
77247;SHT35;66279;42.820;23.374;2023-02-01T10:32:29;5.74;62.55
77247;SHT35;66279;42.820;23.374;2023-02-01T10:35:08;5.73;60.38
77247;SHT35;66279;42.820;23.374;2023-02-01T10:37:35;5.66;59.75
77247;SHT35;66279;42.820;23.374;2023-02-01T10:42:39;5.59;60.11
77247;SHT35;66279;42.820;23.374;2023-02-01T10:45:05;5.62;59.65
77247;SHT35;66279;42.820;23.374;2023-02-01T10:47:31;5.69;60.30
77247;SHT35;66279;42.820;23.374;2023-02-01T10:50:40;5.89;59.92
77247;SHT35;66279;42.820;23.374;2023-02-01T10:53:24;5.86;58.92
77247;SHT35;66279;42.820;23.374;2023-02-01T10:55:52;5.93;58.69
77247;SHT35;66279;42.820;23.374;2023-02-01T10:58:25;5.90;58.11
77247;SHT35;66279;42.820;23.374;2023-02-01T11:01:00;6.04;57.55
77247;SHT35;66279;42.820;23.374;2023-02-01T11:06:24;6.55;55.67
77247;SHT35;66279;42.820;23.374;2023-02-01T11:09:00;6.92;55.82
77247;SHT35;66279;42.820;23.374;2023-02-01T11:11:26;7.17;54.79
77247;SHT35;66279;42.820;23.374;2023-02-01T11:13:57;7.26;53.68
77247;SHT35;66279;42.820;23.374;2023-02-01T11:16:38;7.43;55.89
77247;SHT35;66279;42.820;23.374;2023-02-01T11:19:05;7.50;54.21
77247;SHT35;66279;42.820;23.374;2023-02-01T11:21:32;7.59;53.63
77247;SHT35;66279;42.820;23.374;2023-02-01T11:24:04;7.81;54.33
77247;SHT35;66279;42.820;23.374;2023-02-01T11:26:32;7.74;52.14
77247;SHT35;66279;42.820;23.374;2023-02-01T11:29:02;7.61;53.87
77247;SHT35;66279;42.820;23.374;2023-02-01T11:31:28;7.50;51.78
77247;SHT35;66279;42.820;23.374;2023-02-01T11:34:04;7.75;54.07
77247;SHT35;66279;42.820;23.374;2023-02-01T11:36:32;7.64;51.71
77247;SHT35;66279;42.820;23.374;2023-02-01T11:42:16;7.43;51.92
77247;SHT35;66279;42.820;23.374;2023-02-01T11:44:45;7.26;51.45
77247;SHT35;66279;42.820;23.374;2023-02-01T11:47:31;7.65;52.54
77247;SHT35;66279;42.820;23.374;2023-02-01T11:50:12;7.85;51.55
77247;SHT35;66279;42.820;23.374;2023-02-01T11:53:24;7.59;51.67
77247;SHT35;66279;42.820;23.374;2023-02-01T12:06:50;7.59;52.75
77247;SHT35;66279;42.820;23.374;2023-02-01T12:12:25;7.55;50.85
77247;SHT35;66279;42.820;23.374;2023-02-01T12:20:31;7.72;51.13
77247;SHT35;66279;42.820;23.374;2023-02-01T12:28:19;7.82;50.76
77247;SHT35;66279;42.820;23.374;2023-02-01T12:42:31;7.90;51.60
77247;SHT35;66279;42.820;23.374;2023-02-01T12:45:34;8.02;50.43
77247;SHT35;66279;42.820;23.374;2023-02-01T12:50:55;7.95;48.84
77247;SHT35;66279;42.820;23.374;2023-02-01T12:53:30;7.93;50.60
77247;SHT35;66279;42.820;23.374;2023-02-01T12:56:03;7.75;50.40
77247;SHT35;66279;42.820;23.374;2023-02-01T12:58:45;7.79;50.52
77247;SHT35;66279;42.820;23.374;2023-02-01T13:01:17;7.79;51.14
77247;SHT35;66279;42.820;23.374;2023-02-01T13:04:17;7.78;51.11
77247;SHT35;66279;42.820;23.374;2023-02-01T13:06:45;7.92;49.65
77247;SHT35;66279;42.820;23.374;2023-02-01T13:11:59;7.89;49.94
77247;SHT35;66279;42.820;23.374;2023-02-01T13:14:38;8.00;49.48
77247;SHT35;66279;42.820;23.374;2023-02-01T13:17:15;7.97;47.53
77247;SHT35;66279;42.820;23.374;2023-02-01T13:22:43;7.90;48.86
77247;SHT35;66279;42.820;23.374;2023-02-01T13:25:13;7.75;49.12
77247;SHT35;66279;42.820;23.374;2023-02-01T13:27:41;7.75;47.75
77247;SHT35;66279;42.820;23.374;2023-02-01T13:30:21;7.78;48.48
77247;SHT35;66279;42.820;23.374;2023-02-01T13:33:18;7.88;48.30
77247;SHT35;66279;42.820;23.374;2023-02-01T13:42:14;7.45;47.79
77247;SHT35;66279;42.820;23.374;2023-02-01T13:44:45;7.54;47.23
77247;SHT35;66279;42.820;23.374;2023-02-01T13:47:38;7.61;47.79
77247;SHT35;66279;42.820;23.374;2023-02-01T13:50:32;7.45;47.94
77247;SHT35;66279;42.820;23.374;2023-02-01T13:53:26;7.32;47.44
77247;SHT35;66279;42.820;23.374;2023-02-01T13:55:59;7.27;47.60
77247;SHT35;66279;42.820;23.374;2023-02-01T13:58:39;7.34;46.56
77247;SHT35;66279;42.820;23.374;2023-02-01T14:03:51;7.26;47.52
77247;SHT35;66279;42.820;23.374;2023-02-01T14:09:18;7.27;47.55
77247;SHT35;66279;42.820;23.374;2023-02-01T14:11:46;7.27;48.32
77247;SHT35;66279;42.820;23.374;2023-02-01T14:17:29;7.38;47.18
77247;SHT35;66279;42.820;23.374;2023-02-01T14:19:33;7.30;47.21
77247;SHT35;66279;42.820;23.374;2023-02-01T14:24:41;7.16;48.15
77247;SHT35;66279;42.820;23.374;2023-02-01T14:29:42;7.07;48.25
77247;SHT35;66279;42.820;23.374;2023-02-01T14:32:17;7.08;48.71
77247;SHT35;66279;42.820;23.374;2023-02-01T14:44:47;6.77;49.45
77247;SHT35;66279;42.820;23.374;2023-02-01T14:47:27;6.69;49.49
77247;SHT35;66279;42.820;23.374;2023-02-01T14:50:02;6.65;49.80
77247;SHT35;66279;42.820;23.374;2023-02-01T14:52:38;6.66;50.16
77247;SHT35;66279;42.820;23.374;2023-02-01T14:58:06;6.35;50.25
77247;SHT35;66279;42.820;23.374;2023-02-01T15:00:35;6.29;50.18
77247;SHT35;66279;42.820;23.374;2023-02-01T15:08:46;6.16;52.38
77247;SHT35;66279;42.820;23.374;2023-02-01T15:11:15;6.13;51.46
77247;SHT35;66279;42.820;23.374;2023-02-01T15:13:48;6.07;52.34
77247;SHT35;66279;42.820;23.374;2023-02-01T15:16:17;6.07;53.36
77247;SHT35;66279;42.820;23.374;2023-02-01T15:18:42;6.00;54.39
77247;SHT35;66279;42.820;23.374;2023-02-01T15:21:17;5.96;55.96
77247;SHT35;66279;42.820;23.374;2023-02-01T15:23:43;5.89;55.41
77247;SHT35;66279;42.820;23.374;2023-02-01T15:26:11;5.80;55.82
77247;SHT35;66279;42.820;23.374;2023-02-01T15:28:49;5.71;56.59
77247;SHT35;66279;42.820;23.374;2023-02-01T15:31:14;5.59;56.77
77247;SHT35;66279;42.820;23.374;2023-02-01T15:33:55;5.49;57.49
77247;SHT35;66279;42.820;23.374;2023-02-01T15:36:21;5.46;58.14
77247;SHT35;66279;42.820;23.374;2023-02-01T15:41:46;5.32;58.22
77247;SHT35;66279;42.820;23.374;2023-02-01T15:44:19;5.27;58.76
77247;SHT35;66279;42.820;23.374;2023-02-01T15:46:47;5.15;59.10
77247;SHT35;66279;42.820;23.374;2023-02-01T15:49:25;5.11;59.57
77247;SHT35;66279;42.820;23.374;2023-02-01T15:51:51;5.01;59.74
77247;SHT35;66279;42.820;23.374;2023-02-01T15:54:22;4.97;59.92
77247;SHT35;66279;42.820;23.374;2023-02-01T15:56:52;4.87;59.36
77247;SHT35;66279;42.820;23.374;2023-02-01T15:59:22;4.81;59.83
77247;SHT35;66279;42.820;23.374;2023-02-01T16:01:48;4.78;59.86
77247;SHT35;66279;42.820;23.374;2023-02-01T16:04:23;4.70;60.54
77247;SHT35;66279;42.820;23.374;2023-02-01T16:06:58;4.67;60.86
77247;SHT35;66279;42.820;23.374;2023-02-01T16:09:38;4.57;60.79
77247;SHT35;66279;42.820;23.374;2023-02-01T16:12:24;4.43;62.65
77247;SHT35;66279;42.820;23.374;2023-02-01T16:14:50;4.23;62.13
77247;SHT35;66279;42.820;23.374;2023-02-01T16:17:15;4.09;62.78
77247;SHT35;66279;42.820;23.374;2023-02-01T16:19:41;4.03;62.25
77247;SHT35;66279;42.820;23.374;2023-02-01T16:22:07;3.94;63.46
77247;SHT35;66279;42.820;23.374;2023-02-01T16:24:32;3.94;62.61
77247;SHT35;66279;42.820;23.374;2023-02-01T16:26:58;3.84;63.32
77247;SHT35;66279;42.820;23.374;2023-02-01T16:29:24;3.63;63.55
77247;SHT35;66279;42.820;23.374;2023-02-01T16:31:49;3.37;64.88
77247;SHT35;66279;42.820;23.374;2023-02-01T16:34:16;3.19;64.59
77247;SHT35;66279;42.820;23.374;2023-02-01T16:36:48;2.92;65.76
77247;SHT35;66279;42.820;23.374;2023-02-01T16:39:19;2.50;67.14
77247;SHT35;66279;42.820;23.374;2023-02-01T16:41:45;2.27;68.47
77247;SHT35;66279;42.820;23.374;2023-02-01T16:44:11;2.11;68.36
77247;SHT35;66279;42.820;23.374;2023-02-01T16:46:41;1.78;70.79
77247;SHT35;66279;42.820;23.374;2023-02-01T16:49:21;1.72;70.34
77247;SHT35;66279;42.820;23.374;2023-02-01T16:51:48;1.75;69.93
77247;SHT35;66279;42.820;23.374;2023-02-01T16:54:15;1.73;69.87
77247;SHT35;66279;42.820;23.374;2023-02-01T16:56:41;1.59;70.54
77247;SHT35;66279;42.820;23.374;2023-02-01T16:59:09;1.44;71.49
77247;SHT35;66279;42.820;23.374;2023-02-01T17:01:35;1.40;71.88
77247;SHT35;66279;42.820;23.374;2023-02-01T17:04:03;1.32;71.51
77247;SHT35;66279;42.820;23.374;2023-02-01T17:06:29;1.24;71.83
77247;SHT35;66279;42.820;23.374;2023-02-01T17:08:58;1.23;71.21
77247;SHT35;66279;42.820;23.374;2023-02-01T17:11:24;1.10;71.90
77247;SHT35;66279;42.820;23.374;2023-02-01T17:13:50;0.96;72.47
77247;SHT35;66279;42.820;23.374;2023-02-01T17:16:28;0.84;72.94
77247;SHT35;66279;42.820;23.374;2023-02-01T17:18:57;0.79;73.38
77247;SHT35;66279;42.820;23.374;2023-02-01T17:21:23;0.82;73.56
77247;SHT35;66279;42.820;23.374;2023-02-01T17:23:50;0.77;73.58
77247;SHT35;66279;42.820;23.374;2023-02-01T17:26:15;0.79;73.41
77247;SHT35;66279;42.820;23.374;2023-02-01T17:28:41;0.73;73.67
77247;SHT35;66279;42.820;23.374;2023-02-01T17:31:12;0.69;73.98
77247;SHT35;66279;42.820;23.374;2023-02-01T17:33:39;0.65;74.20
77247;SHT35;66279;42.820;23.374;2023-02-01T17:36:05;0.62;74.08
77247;SHT35;66279;42.820;23.374;2023-02-01T17:38:32;0.59;75.32
77247;SHT35;66279;42.820;23.374;2023-02-01T17:40:59;0.60;74.93
77247;SHT35;66279;42.820;23.374;2023-02-01T17:43:25;0.53;75.09
77247;SHT35;66279;42.820;23.374;2023-02-01T17:45:53;0.51;74.59
77247;SHT35;66279;42.820;23.374;2023-02-01T17:48:21;0.49;74.36
77247;SHT35;66279;42.820;23.374;2023-02-01T17:50:48;0.45;74.84
77247;SHT35;66279;42.820;23.374;2023-02-01T17:53:16;0.39;75.49
77247;SHT35;66279;42.820;23.374;2023-02-01T17:55:45;0.33;75.57
77247;SHT35;66279;42.820;23.374;2023-02-01T17:58:12;0.21;76.36
77247;SHT35;66279;42.820;23.374;2023-02-01T18:00:39;0.19;76.13
77247;SHT35;66279;42.820;23.374;2023-02-01T18:03:04;0.18;76.25
77247;SHT35;66279;42.820;23.374;2023-02-01T18:05:41;0.12;76.60